createdAt,value
2023-05-06T00:01:50.235Z,8.73
2023-05-06T00:04:18.113Z,8.90
2023-05-06T00:06:45.303Z,9.18
2023-05-06T00:09:12.672Z,8.65
2023-05-06T00:11:40.709Z,8.38
2023-05-06T00:14:07.904Z,8.43
2023-05-06T00:16:35.303Z,8.27
2023-05-06T00:19:02.913Z,8.27
2023-05-06T00:21:30.285Z,9.85
2023-05-06T00:23:57.671Z,9.48
2023-05-06T00:26:25.190Z,10.00
2023-05-06T00:28:53.812Z,8.32
2023-05-06T00:31:21.020Z,9.75
2023-05-06T00:33:48.637Z,9.23
2023-05-06T00:36:17.530Z,8.10
2023-05-06T00:38:44.936Z,8.75
2023-05-06T00:41:12.621Z,9.32
2023-05-06T00:43:39.843Z,9.05
2023-05-06T00:46:08.873Z,8.65
2023-05-06T00:48:36.624Z,8.93
2023-05-06T00:51:04.510Z,8.93
2023-05-06T00:53:33.026Z,8.82
2023-05-06T00:56:01.059Z,9.02
2023-05-06T00:58:28.336Z,8.75
2023-05-06T01:00:55.856Z,8.93
2023-05-06T01:03:24.321Z,8.45
2023-05-06T01:05:57.446Z,8.32
2023-05-06T01:08:35.428Z,9.07
2023-05-06T01:11:07.269Z,8.95
2023-05-06T01:13:49.034Z,8.25
2023-05-06T01:16:18.634Z,8.77
2023-05-06T01:18:49.443Z,8.75
2023-05-06T01:21:17.877Z,8.82
2023-05-06T01:24:04.194Z,7.87
2023-05-06T01:26:31.659Z,8.93
2023-05-06T01:29:02.088Z,8.93
2023-05-06T01:31:40.477Z,8.43
2023-05-06T01:34:16.898Z,8.45
2023-05-06T01:37:04.737Z,7.93
2023-05-06T01:39:32.650Z,8.38
2023-05-06T01:42:02.466Z,9.27
2023-05-06T01:44:33.634Z,8.05
2023-05-06T01:47:06.150Z,8.73
2023-05-06T01:49:34.888Z,8.68
2023-05-06T01:52:02.479Z,8.70
2023-05-06T01:54:29.741Z,8.70
2023-05-06T01:56:56.936Z,9.02
2023-05-06T01:59:24.612Z,8.80
2023-05-06T02:01:52.253Z,8.63
2023-05-06T02:04:19.745Z,8.60
2023-05-06T02:06:46.977Z,8.88
2023-05-06T02:09:16.044Z,8.57
2023-05-06T02:11:44.134Z,8.60
2023-05-06T02:14:11.977Z,9.85
2023-05-06T02:16:39.227Z,9.18
2023-05-06T02:19:07.099Z,8.25
2023-05-06T02:21:34.273Z,8.88
2023-05-06T02:24:01.790Z,9.15
2023-05-06T02:26:28.931Z,8.50
2023-05-06T02:28:56.111Z,8.05
2023-05-06T02:31:23.713Z,8.77
2023-05-06T02:33:51.119Z,9.18
2023-05-06T02:36:18.227Z,8.55
2023-05-06T02:38:45.694Z,9.55
2023-05-06T02:41:12.895Z,8.43
2023-05-06T02:43:40.072Z,7.97
2023-05-06T02:46:07.778Z,9.50
2023-05-06T02:48:35.420Z,8.68
2023-05-06T02:51:03.584Z,9.48
2023-05-06T02:53:31.110Z,8.95
2023-05-06T02:55:58.279Z,10.07
2023-05-06T02:58:26.324Z,8.65
2023-05-06T03:00:53.717Z,9.43
2023-05-06T03:03:22.564Z,8.40
2023-05-06T03:05:49.727Z,8.98
2023-05-06T03:08:17.360Z,8.55
2023-05-06T03:10:44.587Z,8.57
2023-05-06T03:13:12.499Z,9.32
2023-05-06T03:15:40.134Z,9.35
2023-05-06T03:18:07.402Z,8.30
2023-05-06T03:20:34.980Z,9.38
2023-05-06T03:23:02.587Z,9.93
2023-05-06T03:25:30.436Z,9.13
2023-05-06T03:27:57.622Z,9.23
2023-05-06T03:30:25.025Z,9.68
2023-05-06T03:32:56.004Z,10.38
2023-05-06T03:35:24.073Z,9.18
2023-05-06T03:37:51.742Z,9.23
2023-05-06T03:40:19.573Z,8.55
2023-05-06T03:42:46.841Z,9.60
2023-05-06T03:45:14.683Z,8.93
2023-05-06T03:47:42.053Z,9.65
2023-05-06T03:50:10.330Z,9.55
2023-05-06T03:52:38.762Z,8.38
2023-05-06T03:55:07.050Z,8.65
2023-05-06T03:57:34.669Z,8.75
2023-05-06T04:00:02.190Z,8.70
2023-05-06T04:02:30.845Z,9.07
2023-05-06T04:04:58.857Z,9.40
2023-05-06T04:07:26.114Z,8.40
2023-05-06T04:09:53.273Z,9.02
2023-05-06T04:12:21.130Z,8.18
2023-05-06T04:14:49.037Z,9.13
2023-05-06T04:17:16.269Z,8.95
2023-05-06T04:19:43.949Z,9.48
2023-05-06T04:22:11.052Z,8.57
2023-05-06T04:24:38.535Z,8.90
2023-05-06T04:27:06.589Z,9.80
2023-05-06T04:29:33.993Z,8.50
2023-05-06T04:32:02.972Z,8.35
2023-05-06T04:34:31.299Z,9.20
2023-05-06T04:36:58.961Z,8.95
2023-05-06T04:39:26.501Z,8.57
2023-05-06T04:41:54.439Z,9.35
2023-05-06T04:44:22.481Z,8.90
2023-05-06T04:46:49.927Z,9.13
2023-05-06T04:49:17.375Z,11.70
2023-05-06T04:51:44.809Z,10.90
2023-05-06T04:54:12.148Z,9.57
2023-05-06T04:56:40.458Z,10.10
2023-05-06T04:59:08.495Z,10.05
2023-05-06T05:01:35.654Z,8.50
2023-05-06T05:04:03.267Z,9.45
2023-05-06T05:06:31.970Z,9.02
2023-05-06T05:08:59.915Z,9.00
2023-05-06T05:11:28.268Z,9.07
2023-05-06T05:13:58.899Z,9.10
2023-05-06T05:16:27.822Z,8.90
2023-05-06T05:18:55.219Z,9.20
2023-05-06T05:21:23.445Z,8.93
2023-05-06T05:23:51.035Z,9.30
2023-05-06T05:26:18.161Z,11.90
2023-05-06T05:28:45.888Z,10.00
2023-05-06T05:31:13.513Z,9.98
2023-05-06T05:33:41.253Z,10.70
2023-05-06T05:36:09.181Z,9.52
2023-05-06T05:38:37.146Z,9.00
2023-05-06T05:41:04.768Z,9.50
2023-05-06T05:43:32.518Z,8.82
2023-05-06T05:46:01.353Z,9.32
2023-05-06T05:48:32.889Z,8.70
2023-05-06T05:51:04.282Z,10.65
2023-05-06T05:53:31.811Z,8.13
2023-05-06T05:55:59.355Z,10.18
2023-05-06T05:58:27.056Z,8.25
2023-05-06T06:00:55.479Z,9.50
2023-05-06T06:03:23.110Z,9.98
2023-05-06T06:05:52.981Z,8.95
2023-05-06T06:08:20.305Z,8.90
2023-05-06T06:10:48.286Z,9.48
2023-05-06T06:13:16.045Z,9.98
2023-05-06T06:15:43.466Z,8.68
2023-05-06T06:18:10.941Z,7.80
2023-05-06T06:20:38.621Z,7.87
2023-05-06T06:23:05.931Z,7.90
2023-05-06T06:25:33.775Z,8.32
2023-05-06T06:28:00.993Z,8.05
2023-05-06T06:30:28.559Z,8.57
2023-05-06T06:32:56.706Z,8.43
2023-05-06T06:35:24.042Z,8.90
2023-05-06T06:37:51.814Z,9.15
2023-05-06T06:40:19.942Z,8.57
2023-05-06T06:42:47.967Z,8.70
2023-05-06T06:45:17.794Z,8.55
2023-05-06T06:47:45.460Z,9.25
2023-05-06T06:50:12.826Z,8.95
2023-05-06T06:52:40.257Z,7.90
2023-05-06T06:55:08.704Z,8.68
2023-05-06T06:57:37.219Z,8.32
2023-05-06T07:00:05.223Z,8.73
2023-05-06T07:02:32.794Z,8.68
2023-05-06T07:04:59.958Z,9.02
2023-05-06T07:07:27.367Z,9.10
2023-05-06T07:09:55.021Z,8.68
2023-05-06T07:12:23.893Z,8.25
2023-05-06T07:14:51.391Z,8.87
2023-05-06T07:17:18.906Z,9.68
2023-05-06T07:19:46.202Z,9.00
2023-05-06T07:22:13.513Z,9.75
2023-05-06T07:24:41.413Z,8.23
2023-05-06T07:27:08.558Z,8.65
2023-05-06T07:29:36.927Z,9.60
2023-05-06T07:32:04.649Z,8.68
2023-05-06T07:34:34.198Z,9.43
2023-05-06T07:37:01.783Z,8.85
2023-05-06T07:39:29.217Z,9.35
2023-05-06T07:41:56.351Z,10.07
2023-05-06T07:44:23.505Z,9.70
2023-05-06T07:46:51.219Z,9.00
2023-05-06T07:49:18.511Z,10.00
2023-05-06T07:51:45.781Z,9.68
2023-05-06T07:54:13.343Z,10.57
2023-05-06T07:56:40.812Z,9.65
2023-05-06T07:59:07.980Z,9.10
2023-05-06T08:01:36.149Z,9.63
2023-05-06T08:04:03.844Z,8.98
2023-05-06T08:06:32.377Z,9.95
2023-05-06T08:09:00.358Z,11.05
2023-05-06T08:11:27.822Z,9.52
2023-05-06T08:13:55.051Z,9.38
2023-05-06T08:16:25.526Z,7.90
2023-05-06T08:22:24.267Z,8.68
2023-05-06T08:24:52.040Z,8.13
2023-05-06T08:27:19.327Z,8.60
2023-05-06T08:29:46.661Z,8.50
2023-05-06T08:32:14.323Z,7.53
2023-05-06T08:34:41.559Z,8.05
2023-05-06T08:37:09.067Z,8.48
2023-05-06T08:39:36.757Z,8.98
2023-05-06T08:42:05.373Z,7.93
2023-05-06T08:44:33.765Z,8.10
2023-05-06T08:47:01.629Z,8.05
2023-05-06T08:49:29.019Z,8.00
2023-05-06T08:51:57.279Z,8.02
2023-05-06T08:54:26.145Z,7.97
2023-05-06T08:56:54.828Z,8.10
2023-05-06T09:02:52.826Z,7.40
2023-05-06T09:05:20.710Z,6.30
2023-05-06T09:07:47.920Z,7.35
2023-05-06T09:10:15.686Z,5.75
2023-05-06T09:12:43.359Z,7.40
2023-05-06T09:15:11.338Z,6.65
2023-05-06T09:17:38.869Z,6.97
2023-05-06T09:20:09.590Z,6.95
2023-05-06T09:22:38.139Z,7.00
2023-05-06T09:25:06.015Z,7.70
2023-05-06T09:27:34.830Z,6.55
2023-05-06T09:30:12.649Z,5.93
2023-05-06T09:32:41.849Z,6.35
2023-05-06T09:35:10.720Z,5.80
2023-05-06T09:37:38.091Z,5.70
2023-05-06T09:40:06.126Z,5.22
2023-05-06T09:42:34.052Z,5.70
2023-05-06T09:45:02.360Z,5.82
2023-05-06T09:47:35.130Z,6.43
2023-05-06T09:50:03.445Z,5.47
2023-05-06T09:52:31.733Z,5.72
2023-05-06T09:54:59.637Z,5.22
2023-05-06T09:57:30.847Z,5.80
2023-05-06T09:59:59.142Z,6.47
2023-05-06T10:05:46.582Z,5.82
2023-05-06T10:11:33.369Z,3.92
2023-05-06T10:14:01.759Z,4.68
2023-05-06T10:16:29.675Z,4.60
2023-05-06T10:22:46.079Z,4.28
2023-05-06T10:28:49.613Z,3.70
2023-05-06T10:31:17.396Z,2.70
2023-05-06T10:33:51.042Z,4.00
2023-05-06T10:36:20.580Z,2.60
2023-05-06T10:38:56.540Z,3.30
2023-05-06T10:45:05.242Z,4.20
2023-05-06T10:47:58.403Z,4.82
2023-05-06T10:50:26.934Z,5.50
2023-05-06T10:52:56.368Z,3.75
2023-05-06T10:55:27.361Z,3.20
2023-05-06T10:58:02.996Z,3.75
2023-05-06T11:00:34.783Z,3.97
2023-05-06T11:03:06.161Z,5.78
2023-05-06T11:05:47.602Z,3.42
2023-05-06T11:08:15.658Z,12.30
2023-05-06T11:10:42.896Z,12.18
2023-05-06T11:13:21.907Z,4.87
2023-05-06T11:21:52.352Z,7.85
2023-05-06T11:24:31.765Z,5.18
2023-05-06T11:30:29.308Z,6.43
2023-05-06T11:36:04.682Z,5.37
2023-05-06T11:38:52.810Z,4.20
2023-05-06T11:41:23.196Z,5.10
2023-05-06T11:43:52.018Z,5.72
2023-05-06T11:46:22.302Z,6.55
2023-05-06T11:48:50.847Z,4.10
2023-05-06T11:51:25.973Z,6.25
2023-05-06T11:54:07.623Z,8.40
2023-05-06T11:56:49.288Z,4.90
2023-05-06T11:59:18.721Z,5.87
2023-05-06T12:04:14.469Z,4.93
2023-05-06T12:06:41.876Z,5.22
2023-05-06T12:09:12.375Z,5.43
2023-05-06T12:11:41.618Z,5.15
2023-05-06T12:14:13.338Z,3.97
2023-05-06T12:16:41.808Z,4.30
2023-05-06T12:19:09.405Z,9.50
2023-05-06T12:21:41.931Z,5.05
2023-05-06T12:27:40.455Z,4.90
2023-05-06T12:30:09.555Z,3.45
2023-05-06T12:32:56.546Z,3.78
2023-05-06T12:35:32.512Z,3.58
2023-05-06T12:38:11.043Z,6.37
2023-05-06T12:40:39.528Z,8.33
2023-05-06T12:43:07.430Z,3.83
2023-05-06T12:45:35.030Z,3.67
2023-05-06T12:48:04.044Z,4.93
2023-05-06T12:50:43.046Z,8.48
2023-05-06T12:53:13.966Z,3.92
2023-05-06T12:55:45.468Z,4.07
2023-05-06T12:58:18.617Z,3.50
2023-05-06T13:00:46.008Z,3.83
2023-05-06T13:03:14.145Z,4.18
2023-05-06T13:05:41.748Z,4.00
2023-05-06T13:08:09.021Z,5.90
2023-05-06T13:10:36.858Z,8.38
2023-05-06T13:13:04.232Z,4.45
2023-05-06T13:15:34.752Z,4.78
2023-05-06T13:18:02.554Z,4.43
2023-05-06T13:20:31.097Z,3.70
2023-05-06T13:22:58.442Z,3.28
2023-05-06T13:25:26.069Z,4.90
2023-05-06T13:27:53.721Z,4.07
2023-05-06T13:30:21.128Z,5.65
2023-05-06T13:32:51.992Z,4.22
2023-05-06T13:35:21.654Z,3.97
2023-05-06T13:37:49.313Z,3.40
2023-05-06T13:40:16.758Z,3.55
2023-05-06T13:42:44.363Z,3.47
2023-05-06T13:45:12.141Z,4.80
2023-05-06T13:47:39.515Z,4.80
2023-05-06T13:50:07.402Z,8.50
2023-05-06T13:52:34.960Z,4.82
2023-05-06T13:55:02.258Z,5.53
2023-05-06T13:57:29.655Z,5.80
2023-05-06T13:59:57.384Z,6.57
2023-05-06T14:02:27.810Z,5.28
2023-05-06T14:04:58.312Z,5.15
2023-05-06T14:07:25.611Z,5.43
2023-05-06T14:09:53.018Z,6.75
2023-05-06T14:12:23.050Z,6.07
2023-05-06T14:14:50.328Z,5.65
2023-05-06T14:17:17.661Z,6.70
2023-05-06T14:19:45.991Z,6.18
2023-05-06T14:22:13.319Z,6.85
2023-05-06T14:24:40.683Z,6.28
2023-05-06T14:27:08.276Z,5.95
2023-05-06T14:29:35.652Z,5.57
2023-05-06T14:32:03.177Z,5.95
2023-05-06T14:34:30.843Z,6.05
2023-05-06T14:37:00.624Z,6.05
2023-05-06T14:39:28.246Z,7.10
2023-05-06T14:41:55.864Z,6.68
2023-05-06T14:44:23.118Z,6.97
2023-05-06T14:46:55.055Z,7.62
2023-05-06T14:49:22.664Z,15.57
2023-05-06T14:51:51.474Z,12.27
2023-05-06T14:54:29.355Z,10.00
2023-05-06T14:57:01.332Z,6.10
2023-05-06T14:59:28.745Z,5.15
2023-05-06T15:01:57.035Z,9.02
2023-05-06T15:04:24.894Z,11.95
2023-05-06T15:06:54.988Z,7.35
2023-05-06T15:11:51.288Z,8.77
2023-05-06T15:14:18.837Z,9.48
2023-05-06T15:16:46.297Z,17.87
2023-05-06T15:19:17.013Z,8.88
2023-05-06T15:24:14.755Z,7.57
2023-05-06T15:26:41.962Z,9.15
2023-05-06T15:29:09.187Z,12.57
2023-05-06T15:31:39.328Z,11.02
2023-05-06T15:34:08.852Z,8.82
2023-05-06T15:36:36.244Z,8.02
2023-05-06T15:39:04.508Z,8.18
2023-05-06T15:41:33.424Z,7.93
2023-05-06T15:44:02.873Z,7.57
2023-05-06T15:46:31.412Z,10.27
2023-05-06T15:49:21.175Z,7.40
2023-05-06T15:51:47.536Z,7.85
2023-05-06T15:54:18.430Z,8.05
2023-05-06T15:56:46.404Z,12.93
2023-05-06T15:59:14.237Z,7.57
2023-05-06T16:02:24.664Z,6.62
2023-05-06T16:04:30.278Z,8.68
2023-05-06T16:10:30.442Z,9.73
2023-05-06T16:12:58.000Z,10.70
2023-05-06T16:15:25.684Z,8.60
2023-05-06T16:17:53.134Z,15.07
2023-05-06T16:20:21.587Z,8.07
2023-05-06T16:22:52.610Z,25.00
2023-05-06T16:25:23.195Z,9.80
2023-05-06T16:27:51.085Z,7.93
2023-05-06T16:30:18.469Z,7.55
2023-05-06T16:32:45.881Z,9.27
2023-05-06T16:35:13.678Z,10.95
2023-05-06T16:37:43.231Z,10.73
2023-05-06T16:40:13.469Z,7.75
2023-05-06T16:42:41.195Z,7.03
2023-05-06T16:45:09.354Z,6.90
2023-05-06T16:47:37.178Z,8.32
2023-05-06T16:50:08.929Z,8.63
2023-05-06T16:55:07.418Z,6.72
2023-05-06T17:01:08.214Z,15.63
2023-05-06T17:07:14.405Z,18.90
2023-05-06T17:09:42.455Z,41.25
2023-05-06T17:12:17.434Z,26.67
2023-05-06T17:14:45.438Z,14.00
2023-05-06T17:17:12.767Z,8.52
2023-05-06T17:19:40.108Z,21.62
2023-05-06T17:22:08.297Z,30.48
2023-05-06T17:24:36.046Z,38.28
2023-05-06T17:27:04.963Z,39.30
2023-05-06T17:29:32.569Z,28.23
2023-05-06T17:31:59.909Z,13.60
2023-05-06T17:34:27.137Z,22.37
2023-05-06T17:36:54.874Z,21.20
2023-05-06T17:39:22.151Z,14.38
2023-05-06T17:41:52.948Z,11.10
2023-05-06T17:44:20.722Z,28.80
2023-05-06T17:46:48.354Z,10.15
2023-05-06T17:49:15.884Z,7.93
2023-05-06T17:55:17.387Z,8.65
2023-05-06T17:57:45.242Z,8.95
2023-05-06T18:00:13.867Z,14.15
2023-05-06T18:06:13.565Z,11.00
2023-05-06T18:08:41.107Z,15.02
2023-05-06T18:11:08.434Z,10.75
2023-05-06T18:13:36.713Z,9.32
2023-05-06T18:16:06.073Z,10.50
2023-05-06T18:18:33.586Z,9.82
2023-05-06T18:21:00.947Z,9.43
2023-05-06T18:23:29.964Z,10.10
2023-05-06T18:25:57.214Z,10.60
2023-05-06T18:28:24.533Z,15.57
2023-05-06T18:34:24.390Z,14.05
2023-05-06T18:36:51.927Z,11.12
2023-05-06T18:39:21.648Z,11.60
2023-05-06T18:41:49.034Z,11.93
2023-05-06T18:44:16.608Z,15.30
2023-05-06T18:46:43.939Z,12.85
2023-05-06T18:49:14.391Z,11.43
2023-05-06T18:51:42.020Z,11.55
2023-05-06T18:54:09.367Z,12.25
2023-05-06T18:56:37.449Z,14.75
2023-05-06T18:59:05.288Z,10.85
2023-05-06T19:01:32.579Z,10.50
2023-05-06T19:04:00.001Z,10.65
2023-05-06T19:06:27.914Z,11.40
2023-05-06T19:08:55.180Z,12.77
2023-05-06T19:11:22.611Z,16.62
2023-05-06T19:13:52.080Z,17.17
2023-05-06T19:16:19.508Z,15.43
2023-05-06T19:18:47.989Z,18.75
2023-05-06T19:21:15.964Z,19.48
2023-05-06T19:23:43.194Z,15.60
2023-05-06T19:26:11.419Z,16.08
2023-05-06T19:28:42.262Z,13.80
2023-05-06T19:31:10.671Z,14.85
2023-05-06T19:37:09.281Z,19.83
2023-05-06T19:39:36.846Z,19.62
2023-05-06T19:42:04.795Z,17.95
2023-05-06T19:44:32.114Z,17.33
2023-05-06T19:46:59.651Z,16.12
2023-05-06T19:49:26.911Z,14.57
2023-05-06T19:51:54.264Z,14.30
2023-05-06T19:54:22.490Z,15.73
2023-05-06T19:56:49.673Z,13.50
2023-05-06T19:59:17.717Z,12.18
2023-05-06T20:01:45.140Z,10.70
2023-05-06T20:04:12.781Z,8.68
2023-05-06T20:06:40.049Z,8.48
2023-05-06T20:09:07.378Z,8.25
2023-05-06T20:11:34.925Z,7.65
2023-05-06T20:14:02.154Z,11.40
2023-05-06T20:16:29.397Z,11.45
2023-05-06T20:18:57.228Z,14.52
2023-05-06T20:21:24.405Z,9.98
2023-05-06T20:23:51.693Z,8.60
2023-05-06T20:26:20.002Z,9.20
2023-05-06T20:28:47.494Z,7.87
2023-05-06T20:31:17.661Z,5.68
2023-05-06T20:33:46.189Z,7.62
2023-05-06T20:36:13.778Z,6.12
2023-05-06T20:38:41.877Z,7.12
2023-05-06T20:41:09.849Z,7.87
2023-05-06T20:43:37.048Z,9.38
2023-05-06T20:46:04.243Z,9.73
2023-05-06T20:48:32.166Z,7.12
2023-05-06T20:50:59.365Z,7.40
2023-05-06T20:53:27.367Z,6.35
2023-05-06T20:55:55.072Z,7.78
2023-05-06T20:58:22.398Z,11.50
2023-05-06T21:00:50.539Z,10.63
2023-05-06T21:03:18.151Z,9.82
2023-05-06T21:05:45.547Z,8.98
2023-05-06T21:08:12.941Z,9.70
2023-05-06T21:10:40.356Z,10.75
2023-05-06T21:16:39.813Z,11.40
2023-05-06T21:19:07.730Z,15.90
2023-05-06T21:21:35.034Z,13.90
2023-05-06T21:24:02.701Z,12.00
2023-05-06T21:26:31.299Z,12.27
2023-05-06T21:28:58.557Z,10.75
2023-05-06T21:31:26.945Z,9.98
2023-05-06T21:33:55.925Z,10.18
2023-05-06T21:36:23.325Z,11.18
2023-05-06T21:39:09.847Z,10.80
2023-05-06T21:41:37.560Z,11.07
2023-05-06T21:44:06.073Z,11.40
2023-05-06T21:46:34.962Z,10.30
2023-05-06T21:49:02.581Z,9.70
2023-05-06T21:51:34.802Z,8.73
2023-05-06T21:54:02.848Z,9.63
2023-05-06T21:56:30.384Z,9.48
2023-05-06T21:58:57.607Z,8.88
2023-05-06T22:01:26.342Z,8.98
2023-05-06T22:03:54.249Z,8.55
2023-05-06T22:06:22.501Z,9.02
2023-05-06T22:08:49.896Z,9.18
2023-05-06T22:11:17.675Z,7.85
2023-05-06T22:13:44.858Z,9.23
2023-05-06T22:16:12.487Z,9.15
2023-05-06T22:18:42.922Z,10.25
2023-05-06T22:21:10.057Z,10.52
2023-05-06T22:23:37.813Z,10.13
2023-05-06T22:26:05.296Z,9.98
2023-05-06T22:28:32.840Z,11.27
2023-05-06T22:30:59.961Z,11.43
2023-05-06T22:33:27.440Z,11.30
2023-05-06T22:35:55.575Z,12.10
2023-05-06T22:38:22.959Z,10.68
2023-05-06T22:40:50.801Z,10.40
2023-05-06T22:43:18.149Z,9.90
2023-05-06T22:45:45.274Z,9.30
2023-05-06T22:48:12.757Z,8.55
2023-05-06T22:50:39.980Z,9.35
2023-05-06T22:53:15.140Z,9.10
2023-05-06T22:55:43.182Z,8.73
2023-05-06T22:58:10.494Z,10.20
2023-05-06T23:00:37.688Z,10.15
2023-05-06T23:03:06.133Z,9.73
2023-05-06T23:05:33.415Z,9.25
2023-05-06T23:08:00.616Z,9.60
2023-05-06T23:10:28.114Z,10.25
2023-05-06T23:12:55.404Z,9.88
2023-05-06T23:15:23.113Z,10.82
2023-05-06T23:17:50.805Z,9.70
2023-05-06T23:20:17.976Z,10.10
2023-05-06T23:22:45.116Z,9.10
2023-05-06T23:25:12.881Z,9.50
2023-05-06T23:27:40.941Z,8.38
2023-05-06T23:33:37.999Z,9.03
2023-05-06T23:36:05.764Z,8.60
2023-05-06T23:38:32.841Z,7.97
2023-05-06T23:40:59.917Z,8.10
2023-05-06T23:43:27.360Z,7.37
2023-05-06T23:45:54.526Z,8.75
2023-05-06T23:48:21.689Z,8.20
2023-05-06T23:50:49.168Z,7.80
2023-05-06T23:53:16.297Z,6.80
2023-05-06T23:55:44.280Z,8.50
2023-05-06T23:58:11.791Z,7.60
